Time;durP1;ratioP1;P1;durP2;ratioP2;P2;SDS_P1;SDS_P2;PMS_P1;PMS_P2;Temp;Humidity;BMP_temperature;BMP_pressure;BME280_temperature;BME280_humidity;BME280_pressure;Samples;Min_cycle;Max_cycle;Signal;HPM_P1;HPM_P2
2022/12/08 00:00:02;;;;;;;10.32;7.25;;;;;;;3.42;60.64;98843.88;5106248;28;20107;-73
2022/12/08 00:02:29;;;;;;;8.70;6.80;;;;;;;3.43;60.51;98840.34;5106469;28;20046;-73
2022/12/08 00:10:24;;;;;;;8.90;6.95;;;;;;;3.23;60.81;98806.13;5105200;28;20189;-73
2022/12/08 00:12:52;;;;;;;9.35;7.15;;;;;;;3.43;60.74;98836.88;5106293;28;20052;-73
2022/12/08 00:15:19;;;;;;;8.20;6.47;;;;;;;3.43;60.59;98834.25;5106162;28;20040;-72
2022/12/08 00:17:45;;;;;;;10.05;7.97;;;;;;;3.39;60.41;98835.28;5105537;28;20040;-74
2022/12/08 00:20:12;;;;;;;10.60;7.80;;;;;;;3.36;60.89;98833.63;5105996;28;20052;-73
2022/12/08 00:22:39;;;;;;;9.52;7.25;;;;;;;3.32;60.54;98837.25;5104919;28;20050;-73
2022/12/08 00:25:06;;;;;;;9.18;7.60;;;;;;;3.31;60.76;98834.69;5104787;28;20304;-72
2022/12/08 00:27:33;;;;;;;9.23;7.47;;;;;;;3.31;60.79;98837.31;5105123;28;20048;-73
2022/12/08 00:30:01;;;;;;;9.55;7.18;;;;;;;3.32;60.92;98836.41;5105663;28;20300;-72
2022/12/08 00:32:28;;;;;;;10.85;8.00;;;;;;;3.35;60.75;98828.44;5105086;28;20036;-73
2022/12/08 00:34:55;;;;;;;10.55;7.78;;;;;;;3.35;60.54;98831.06;5105481;28;20228;-73
2022/12/08 00:37:22;;;;;;;9.30;6.80;;;;;;;3.39;60.65;98830.91;5106182;28;20063;-73
2022/12/08 00:39:48;;;;;;;9.40;7.30;;;;;;;3.39;60.39;98827.41;5105585;28;20065;-72
2022/12/08 00:42:16;;;;;;;9.65;6.50;;;;;;;3.38;60.47;98823.94;5105517;28;20046;-73
2022/12/08 00:44:44;;;;;;;8.52;6.72;;;;;;;3.36;60.40;98815.28;5105481;28;20040;-72
2022/12/08 00:47:13;;;;;;;7.07;6.03;;;;;;;3.35;60.44;98821.44;5105466;28;20051;-72
2022/12/08 00:49:40;;;;;;;7.85;6.05;;;;;;;3.39;60.52;98823.03;5105946;28;20089;-72
2022/12/08 00:52:07;;;;;;;7.38;6.32;;;;;;;3.08;60.38;98767.38;5105043;28;20211;-72
2022/12/08 00:54:34;;;;;;;7.03;5.65;;;;;;;3.43;60.31;98819.41;5105402;28;20040;-73
2022/12/08 00:57:01;;;;;;;7.82;5.72;;;;;;;3.45;60.31;98822.81;5105869;28;20060;-73
2022/12/08 00:59:27;;;;;;;7.47;5.95;;;;;;;3.37;60.28;98809.13;5105265;28;20051;-73
2022/12/08 01:01:54;;;;;;;8.60;6.00;;;;;;;3.43;60.33;98814.16;5105344;28;20036;-73
2022/12/08 01:04:23;;;;;;;8.32;6.22;;;;;;;3.45;60.38;98819.34;5104444;28;20036;-73
2022/12/08 01:06:49;;;;;;;8.43;6.50;;;;;;;3.45;60.25;98825.44;5105296;28;20056;-73
2022/12/08 01:09:17;;;;;;;6.57;5.85;;;;;;;3.45;60.18;98840.31;5105261;28;20085;-72
2022/12/08 01:11:44;;;;;;;8.18;6.68;;;;;;;3.44;60.34;98823.72;5104344;28;20040;-73
2022/12/08 01:14:11;;;;;;;8.23;6.57;;;;;;;3.44;60.22;98823.72;5105507;28;20050;-72
2022/12/08 01:16:40;;;;;;;10.57;7.60;;;;;;;3.43;60.42;98818.53;5105434;28;20044;-72
2022/12/08 01:19:06;;;;;;;10.35;7.20;;;;;;;2.89;60.44;98735.75;5104331;28;20039;-73
2022/12/08 01:21:35;;;;;;;9.68;7.30;;;;;;;2.26;60.38;98632.34;5105184;28;20047;-73
2022/12/08 01:24:01;;;;;;;8.25;6.60;;;;;;;3.38;60.57;98820.47;5105049;28;20051;-73
2022/12/08 01:26:28;;;;;;;7.75;6.55;;;;;;;3.36;60.30;98824.91;5105316;28;20296;-72
2022/12/08 01:28:55;;;;;;;10.13;6.07;;;;;;;3.14;60.32;98780.25;5105092;28;20215;-72
2022/12/08 01:31:22;;;;;;;8.65;6.30;;;;;;;3.32;60.60;98813.69;5105167;28;20064;-72
2022/12/08 01:33:50;;;;;;;6.70;5.25;;;;;;;3.33;60.58;98818.00;5106248;28;20094;-73
2022/12/08 01:36:20;;;;;;;7.90;6.28;;;;;;;3.34;60.58;98817.09;5108006;28;20058;-73
2022/12/08 01:38:49;;;;;;;7.57;5.70;;;;;;;3.35;60.63;98812.72;5107946;28;20254;-72
2022/12/08 01:41:17;;;;;;;7.97;6.00;;;;;;;3.33;60.46;98807.53;5109092;28;20051;-73
2022/12/08 01:43:54;;;;;;;7.25;5.70;;;;;;;3.33;60.05;98811.91;5109301;28;20204;-73
2022/12/08 01:46:21;;;;;;;7.32;5.43;;;;;;;3.27;60.56;98812.97;5107760;28;20073;-73
2022/12/08 01:48:49;;;;;;;8.82;6.40;;;;;;;3.09;60.69;98784.81;5107811;28;20044;-72
2022/12/08 01:51:15;;;;;;;8.10;6.68;;;;;;;3.22;60.88;98803.56;5109152;28;20043;-73
2022/12/08 01:53:43;;;;;;;8.40;6.47;;;;;;;3.20;60.95;98808.84;5109106;28;20036;-72
2022/12/08 01:56:15;;;;;;;6.90;6.20;;;;;;;3.21;60.90;98797.47;5107666;28;20226;-72
2022/12/08 01:58:47;;;;;;;7.72;6.43;;;;;;;3.22;61.20;98803.56;5108730;28;20047;-72
2022/12/08 02:01:14;;;;;;;9.60;7.00;;;;;;;3.19;61.12;98791.44;5108418;28;20047;-72
2022/12/08 02:03:45;;;;;;;8.57;7.05;;;;;;;3.17;61.13;98788.00;5108883;28;20044;-72
2022/12/08 02:06:12;;;;;;;7.57;6.45;;;;;;;3.18;61.29;98792.34;5108119;28;20040;-72
2022/12/08 02:08:41;;;;;;;7.97;6.25;;;;;;;3.18;61.36;98785.34;5107321;28;20050;-72
2022/12/08 02:11:10;;;;;;;10.98;6.97;;;;;;;3.17;61.25;98783.63;5108196;28;20044;-73
2022/12/08 02:13:39;;;;;;;8.95;5.40;;;;;;;3.12;61.20;98785.56;5108258;28;20040;-73
2022/12/08 02:16:12;;;;;;;7.65;5.93;;;;;;;2.94;61.05;98760.00;5107516;28;20044;-72
2022/12/08 02:18:56;;;;;;;7.63;5.68;;;;;;;3.04;60.85;98786.72;5108295;28;20048;-73
2022/12/08 02:21:32;;;;;;;7.65;5.20;;;;;;;3.02;61.13;98778.91;5108386;28;20292;-72
2022/12/08 02:24:09;;;;;;;8.93;5.88;;;;;;;3.01;61.18;98769.34;5107246;28;20036;-73
2022/12/08 02:27:08;;;;;;;7.93;6.85;;;;;;;3.02;61.04;98770.22;5107649;28;20195;-73
2022/12/08 02:29:52;;;;;;;6.95;5.72;;;;;;;3.02;61.19;98770.22;5107064;28;20040;-72
2022/12/08 02:32:51;;;;;;;9.82;7.30;;;;;;;3.06;61.02;98767.44;5107317;28;20319;-73
2022/12/08 02:35:26;;;;;;;8.02;6.20;;;;;;;2.91;61.23;98731.31;5065464;28;20086;-73
2022/12/08 02:38:01;;;;;;;7.68;5.88;;;;;;;3.03;61.23;98745.75;5107669;28;20047;-73
2022/12/08 02:40:33;;;;;;;9.38;5.88;;;;;;;3.14;61.14;98756.69;5106939;28;20040;-72
2022/12/08 02:43:03;;;;;;;7.22;5.55;;;;;;;3.15;60.96;98750.56;5106831;28;20059;-73
2022/12/08 02:45:34;;;;;;;8.07;6.38;;;;;;;3.15;61.03;98742.69;5107605;28;20047;-72
2022/12/08 02:48:00;;;;;;;7.32;5.10;;;;;;;3.16;61.15;98742.66;5106792;28;20043;-73
2022/12/08 02:50:29;;;;;;;6.38;5.55;;;;;;;3.15;61.03;98746.16;5107482;28;20051;-73
2022/12/08 02:52:56;;;;;;;8.73;5.85;;;;;;;3.16;61.08;98745.25;5106660;28;20181;-73
2022/12/08 02:55:27;;;;;;;7.03;5.80;;;;;;;3.16;60.99;98739.16;5107951;28;20066;-73
2022/12/08 02:58:38;;;;;;;9.43;6.43;;;;;;;3.17;61.13;98739.13;5106506;28;20044;-73
2022/12/08 03:01:19;;;;;;;7.78;5.40;;;;;;;3.18;61.07;98734.75;5026399;28;20068;-73
2022/12/08 03:03:55;;;;;;;8.73;6.20;;;;;;;3.22;61.11;98730.25;5025761;28;20057;-68
2022/12/08 03:06:29;;;;;;;8.30;5.78;;;;;;;3.24;60.99;98733.66;5075404;28;20064;-67
2022/12/08 03:08:59;;;;;;;9.07;6.03;;;;;;;2.50;61.13;98604.53;5107147;28;20036;-68
2022/12/08 03:11:32;;;;;;;6.90;5.50;;;;;;;3.27;61.15;98726.56;5107058;28;20051;-67
2022/12/08 03:14:01;;;;;;;8.00;6.38;;;;;;;3.29;61.23;98732.59;5107024;28;20039;-68
2022/12/08 03:16:30;;;;;;;9.38;5.53;;;;;;;3.27;61.07;98726.56;5106950;28;20036;-73
2022/12/08 03:19:04;;;;;;;8.27;5.88;;;;;;;3.27;61.16;98730.94;5107517;28;20050;-73
2022/12/08 03:21:34;;;;;;;8.82;6.20;;;;;;;3.27;61.18;98715.22;5106017;28;20040;-73
2022/12/08 03:24:04;;;;;;;8.15;5.50;;;;;;;2.75;61.25;98628.91;5106866;28;20242;-73
2022/12/08 03:26:39;;;;;;;6.97;6.18;;;;;;;3.29;60.95;98722.13;5106111;28;20051;-73
2022/12/08 03:29:06;;;;;;;6.43;5.18;;;;;;;3.33;61.36;98722.88;5106628;28;20061;-72
2022/12/08 03:31:40;;;;;;;8.20;7.03;;;;;;;3.33;60.99;98722.88;5107222;28;20208;-73
2022/12/08 03:34:09;;;;;;;10.68;7.07;;;;;;;3.35;61.09;98715.81;5106472;28;20113;-72
2022/12/08 03:36:38;;;;;;;7.75;6.38;;;;;;;3.35;61.07;98702.72;5107126;28;20048;-72
2022/12/08 03:39:04;;;;;;;8.50;5.40;;;;;;;3.34;61.04;98712.34;5106584;28;20169;-73
2022/12/08 03:41:31;;;;;;;6.90;5.75;;;;;;;3.36;61.00;98714.91;5106485;28;20137;-72
2022/12/08 03:43:59;;;;;;;6.53;5.65;;;;;;;2.82;61.19;98626.94;5107019;28;20040;-72
2022/12/08 03:46:27;;;;;;;7.32;5.57;;;;;;;3.28;61.02;98685.50;5106853;28;20050;-73
2022/12/08 03:48:54;;;;;;;8.02;6.00;;;;;;;3.37;60.99;98703.50;5106499;28;20319;-73
2022/12/08 03:51:21;;;;;;;9.02;5.82;;;;;;;3.33;61.34;98697.53;5105737;28;20048;-72
2022/12/08 03:53:50;;;;;;;8.95;7.25;;;;;;;3.32;61.66;98700.19;5105476;28;20040;-73
2022/12/08 03:56:25;;;;;;;8.75;6.35;;;;;;;3.26;61.68;98696.03;5106001;28;20047;-73
2022/12/08 03:58:53;;;;;;;12.02;6.50;;;;;;;3.25;61.75;98696.94;5106201;28;20044;-72
2022/12/08 04:01:20;;;;;;;7.47;6.00;;;;;;;3.23;61.98;98690.91;5106433;28;20273;-73
2022/12/08 04:03:47;;;;;;;7.95;6.18;;;;;;;3.23;62.22;98695.28;5106090;28;20133;-73
2022/12/08 04:06:14;;;;;;;9.18;6.65;;;;;;;3.25;62.29;98694.31;5106131;28;20086;-73
2022/12/08 04:08:41;;;;;;;7.03;5.88;;;;;;;3.24;62.34;98700.47;5105426;28;20047;-73
2022/12/08 04:11:10;;;;;;;7.78;6.13;;;;;;;3.24;62.32;98689.16;5105369;28;20032;-73
2022/12/08 04:13:38;;;;;;;8.20;5.82;;;;;;;3.23;62.40;98692.69;5106420;28;20204;-73
2022/12/08 04:16:06;;;;;;;8.63;6.72;;;;;;;3.25;62.45;98696.09;5106437;28;20203;-73
2022/12/08 04:18:34;;;;;;;9.38;6.72;;;;;;;3.26;62.18;98695.19;5105893;28;20098;-73
2022/12/08 04:21:01;;;;;;;8.27;6.38;;;;;;;3.28;62.38;98685.50;5106110;28;20051;-72
2022/12/08 04:23:27;;;;;;;8.55;7.18;;;;;;;3.25;62.47;98691.72;5106072;28;20089;-73
2022/12/08 04:25:54;;;;;;;7.38;6.47;;;;;;;3.26;62.54;98695.19;5106477;28;20040;-73
2022/12/08 04:28:22;;;;;;;7.85;5.50;;;;;;;3.06;62.36;98651.38;5106275;28;20059;-73
2022/12/08 04:30:49;;;;;;;7.70;6.05;;;;;;;3.23;62.40;98683.06;5105717;28;20208;-72
2022/12/08 04:33:16;;;;;;;9.00;6.35;;;;;;;3.23;62.39;98683.06;5104821;28;20052;-73
2022/12/08 04:35:43;;;;;;;7.90;6.40;;;;;;;3.20;62.41;98683.16;5105523;28;20056;-73
2022/12/08 04:38:10;;;;;;;8.05;5.95;;;;;;;3.16;62.42;98684.19;5104747;28;20043;-73
2022/12/08 04:40:36;;;;;;;8.35;6.18;;;;;;;3.15;62.46;98685.09;5104714;28;20200;-72
2022/12/08 04:43:03;;;;;;;7.97;6.38;;;;;;;3.14;62.36;98673.78;5104693;28;20051;-72
2022/12/08 04:45:32;;;;;;;9.07;6.22;;;;;;;3.17;62.37;98678.03;5105722;28;20039;-72
2022/12/08 04:48:00;;;;;;;9.00;6.45;;;;;;;3.19;62.40;98670.97;5105459;28;20044;-73
2022/12/08 04:50:27;;;;;;;9.52;6.82;;;;;;;3.00;62.32;98636.75;5105452;28;20086;-73
2022/12/08 04:52:54;;;;;;;7.05;5.65;;;;;;;3.24;62.42;98670.81;5105120;28;20046;-73
2022/12/08 04:55:21;;;;;;;8.25;6.15;;;;;;;3.24;62.34;98668.19;5105369;28;20040;-72
2022/12/08 04:57:48;;;;;;;7.78;6.25;;;;;;;3.25;62.28;98660.28;5105651;28;20196;-72
2022/12/08 05:00:16;;;;;;;7.68;5.72;;;;;;;2.81;62.58;98591.22;5105669;28;20070;-73
2022/12/08 05:02:44;;;;;;;8.27;5.97;;;;;;;3.26;62.34;98659.38;5105402;28;20284;-72
2022/12/08 05:05:10;;;;;;;8.02;6.15;;;;;;;3.24;62.53;98661.19;5104428;28;20066;-73
2022/12/08 05:07:37;;;;;;;9.63;6.80;;;;;;;3.25;62.47;98655.03;5106198;28;20052;-73
2022/12/08 05:10:05;;;;;;;10.23;7.85;;;;;;;3.26;62.54;98661.13;5109694;28;20047;-72
2022/12/08 05:12:31;;;;;;;8.52;6.22;;;;;;;3.29;62.54;98664.50;5109391;28;20048;-72
2022/12/08 05:14:58;;;;;;;8.80;6.22;;;;;;;-0.85;62.39;97955.72;5109564;28;20040;-72
2022/12/08 05:17:25;;;;;;;8.48;6.45;;;;;;;3.07;62.65;98616.44;5109851;28;20274;-73
2022/12/08 05:19:53;;;;;;;9.63;6.75;;;;;;;3.31;62.71;98654.81;5108947;28;20106;-73
2022/12/08 05:22:20;;;;;;;10.13;6.93;;;;;;;3.32;62.70;98653.91;5109757;28;20062;-72
2022/12/08 05:24:47;;;;;;;9.57;6.57;;;;;;;3.16;62.69;98623.97;5108302;28;20036;-73
2022/12/08 05:27:13;;;;;;;8.05;6.25;;;;;;;3.35;62.82;98645.09;5109359;28;20358;-73
2022/12/08 05:29:40;;;;;;;9.48;6.53;;;;;;;3.35;62.84;98651.19;5108214;28;20353;-72
2022/12/08 05:32:07;;;;;;;7.90;5.90;;;;;;;3.34;62.82;98646.00;5109006;28;20050;-72
2022/12/08 05:34:34;;;;;;;8.30;6.35;;;;;;;3.34;62.93;98643.38;5108003;28;20055;-73
2022/12/08 05:37:02;;;;;;;9.43;6.78;;;;;;;3.36;63.00;98642.41;5108049;28;20304;-73
2022/12/08 05:39:28;;;;;;;8.75;6.45;;;;;;;3.37;62.91;98645.88;5108862;28;20046;-72
2022/12/08 05:41:55;;;;;;;11.20;6.60;;;;;;;3.37;62.92;98643.25;5109103;28;20059;-72
2022/12/08 05:44:22;;;;;;;7.55;5.85;;;;;;;3.36;62.68;98647.66;5107960;28;20055;-73
2022/12/08 05:46:49;;;;;;;7.85;6.15;;;;;;;3.36;63.06;98644.19;5109213;28;20044;-72
2022/12/08 05:49:15;;;;;;;8.65;7.15;;;;;;;3.37;62.90;98644.13;5108650;28;20040;-73
2022/12/08 05:51:42;;;;;;;9.30;6.40;;;;;;;3.36;62.89;98647.66;5108910;28;20044;-73
2022/12/08 05:54:10;;;;;;;8.73;6.40;;;;;;;3.19;62.97;98616.84;5108538;28;20086;-73
2022/12/08 05:56:37;;;;;;;8.23;6.30;;;;;;;3.34;62.76;98639.00;5107945;28;20047;-72
2022/12/08 05:59:05;;;;;;;8.85;5.93;;;;;;;3.35;62.58;98639.84;5107642;28;20113;-72
2022/12/08 06:01:32;;;;;;;6.60;5.90;;;;;;;3.33;62.26;98637.28;5108725;28;20055;-73
2022/12/08 06:04:01;;;;;;;7.60;5.47;;;;;;;3.31;62.28;98635.63;5107528;28;20054;-73
2022/12/08 06:06:28;;;;;;;9.30;5.85;;;;;;;3.31;62.15;98638.25;5107424;28;20043;-73
2022/12/08 06:08:55;;;;;;;10.45;7.18;;;;;;;3.30;62.47;98631.31;5108665;28;20242;-72
2022/12/08 06:11:26;;;;;;;9.30;6.82;;;;;;;3.10;62.68;98606.72;5108273;28;20053;-73
2022/12/08 06:13:53;;;;;;;10.60;6.95;;;;;;;3.28;62.99;98639.22;5108519;28;20284;-73
2022/12/08 06:16:20;;;;;;;10.32;7.75;;;;;;;3.03;63.13;98591.28;5108159;28;20044;-72
2022/12/08 06:18:47;;;;;;;8.50;6.18;;;;;;;2.52;62.99;98539.94;5108345;28;20048;-73
2022/12/08 06:21:15;;;;;;;9.23;6.15;;;;;;;3.28;63.08;98639.22;5107516;28;20044;-73
2022/12/08 06:23:42;;;;;;;8.60;6.90;;;;;;;3.26;63.16;98640.19;5108631;28;20227;-72
2022/12/08 06:26:12;;;;;;;9.75;7.25;;;;;;;2.78;63.16;98583.47;5108458;28;20044;-73
2022/12/08 06:28:40;;;;;;;9.68;7.03;;;;;;;3.27;63.40;98639.28;5108163;28;20047;-73
2022/12/08 06:31:08;;;;;;;8.38;6.47;;;;;;;3.28;63.27;98623.50;5107075;28;20036;-72
2022/12/08 06:33:36;;;;;;;8.57;6.53;;;;;;;3.29;63.28;98634.84;5107930;28;20044;-73
2022/12/08 06:36:03;;;;;;;9.93;6.88;;;;;;;3.28;63.27;98633.97;5107660;28;20122;-73
2022/12/08 06:38:30;;;;;;;9.30;7.50;;;;;;;3.24;63.44;98632.38;5107720;28;20051;-73
2022/12/08 06:40:58;;;;;;;10.70;7.88;;;;;;;3.23;63.21;98629.81;5107675;28;20044;-73
2022/12/08 06:43:26;;;;;;;8.45;6.43;;;;;;;3.19;63.10;98635.19;5108192;28;20097;-72
2022/12/08 06:45:54;;;;;;;9.20;7.40;;;;;;;3.20;63.18;98630.78;5106684;28;20040;-72
2022/12/08 06:48:21;;;;;;;7.88;6.25;;;;;;;3.22;63.27;98635.97;5107904;28;20044;-73
2022/12/08 06:50:47;;;;;;;9.68;6.63;;;;;;;3.00;63.15;98596.63;5106538;28;20040;-73
2022/12/08 06:53:15;;;;;;;9.15;7.03;;;;;;;3.23;63.34;98628.06;5107700;28;20052;-73
2022/12/08 06:55:45;;;;;;;7.85;6.88;;;;;;;3.24;63.34;98621.06;5106534;28;20047;-72
2022/12/08 06:58:13;;;;;;;9.00;6.65;;;;;;;3.23;63.24;98625.44;5106523;28;20040;-73
2022/12/08 07:00:40;;;;;;;8.40;6.70;;;;;;;3.20;63.41;98623.78;5107583;28;20063;-73
2022/12/08 07:03:09;;;;;;;10.52;7.40;;;;;;;3.18;63.46;98622.13;5107486;28;20091;-72
2022/12/08 07:05:37;;;;;;;9.52;7.90;;;;;;;3.19;63.60;98626.47;5107428;28;20194;-73
2022/12/08 07:08:05;;;;;;;9.63;7.55;;;;;;;3.18;63.57;98624.75;5107338;28;20064;-73
2022/12/08 07:10:32;;;;;;;8.90;7.15;;;;;;;3.17;63.68;98631.75;5107120;28;20050;-72
2022/12/08 07:12:59;;;;;;;9.75;7.00;;;;;;;3.20;63.81;98625.56;5107562;28;20085;-72
2022/12/08 07:15:26;;;;;;;7.75;6.40;;;;;;;3.04;63.81;98600.84;5106150;28;20330;-73
2022/12/08 07:17:53;;;;;;;8.60;6.50;;;;;;;3.23;63.86;98628.06;5106982;28;20040;-72
2022/12/08 07:20:21;;;;;;;10.45;7.57;;;;;;;3.22;63.96;98618.50;5106863;28;20047;-72
2022/12/08 07:22:49;;;;;;;8.70;7.10;;;;;;;3.25;64.02;98628.00;5106847;28;20050;-73
2022/12/08 07:25:16;;;;;;;8.38;6.72;;;;;;;3.15;63.94;98624.88;5107071;28;20044;-72
2022/12/08 07:27:43;;;;;;;9.30;6.63;;;;;;;3.06;63.86;98580.69;5106972;28;20044;-72
2022/12/08 07:30:11;;;;;;;9.45;7.35;;;;;;;2.76;64.00;98548.66;5106715;28;20059;-72
2022/12/08 07:32:37;;;;;;;8.25;7.32;;;;;;;3.30;64.03;98619.06;5105767;28;20082;-73
2022/12/08 07:35:05;;;;;;;8.48;6.82;;;;;;;3.16;64.12;98593.41;5106380;28;20324;-73
2022/12/08 07:37:35;;;;;;;7.63;6.50;;;;;;;2.77;64.28;98540.75;5107033;28;20055;-73
2022/12/08 07:40:02;;;;;;;9.07;7.80;;;;;;;3.36;64.21;98624.06;5106466;28;20040;-73
2022/12/08 07:42:28;;;;;;;9.43;7.05;;;;;;;3.35;64.38;98625.00;5106673;28;20100;-73
2022/12/08 07:44:55;;;;;;;11.13;7.82;;;;;;;3.35;64.52;98616.28;5105437;28;20227;-73
2022/12/08 07:47:22;;;;;;;7.57;6.68;;;;;;;3.39;64.47;98625.72;5106594;28;20188;-73
2022/12/08 07:49:49;;;;;;;8.90;7.75;;;;;;;3.38;64.52;98619.63;5105464;28;20085;-72
2022/12/08 07:52:15;;;;;;;11.05;8.45;;;;;;;3.40;64.66;98625.66;5106268;28;20047;-73
2022/12/08 07:54:43;;;;;;;8.38;7.03;;;;;;;3.15;64.60;98585.59;5105408;28;20204;-73
2022/12/08 07:57:10;;;;;;;9.23;7.18;;;;;;;3.43;64.71;98629.94;5106699;28;20040;-73
2022/12/08 07:59:37;;;;;;;9.32;7.85;;;;;;;3.44;64.84;98629.88;5105982;28;20052;-73
2022/12/08 08:02:04;;;;;;;8.55;7.65;;;;;;;3.24;64.76;98592.25;5106196;28;20044;-73
2022/12/08 08:04:30;;;;;;;10.43;7.85;;;;;;;3.30;65.00;98598.13;5105305;28;20040;-72
2022/12/08 08:06:57;;;;;;;9.57;8.18;;;;;;;0.30;64.65;98076.00;5106041;28;20059;-72
2022/12/08 08:09:24;;;;;;;11.90;7.95;;;;;;;3.58;64.76;98631.97;5106334;28;20040;-73
2022/12/08 08:11:52;;;;;;;10.70;7.22;;;;;;;3.59;64.65;98627.59;5106486;28;20055;-73
2022/12/08 08:14:19;;;;;;;10.32;8.18;;;;;;;3.59;64.84;98631.06;5106158;28;20361;-73
2022/12/08 08:16:46;;;;;;;9.05;8.02;;;;;;;3.58;65.08;98631.97;5106234;28;20239;-73
2022/12/08 08:19:13;;;;;;;10.13;8.10;;;;;;;1.80;64.80;98416.13;5105131;28;20234;-73
2022/12/08 08:21:39;;;;;;;10.63;7.93;;;;;;;3.65;65.28;98635.22;5106402;28;20051;-73
2022/12/08 08:24:07;;;;;;;10.60;8.25;;;;;;;3.67;65.15;98636.84;5105967;28;20089;-73
2022/12/08 08:26:34;;;;;;;9.77;7.50;;;;;;;3.69;65.57;98628.94;5105081;28;20040;-73
2022/12/08 08:29:02;;;;;;;9.98;7.72;;;;;;;3.69;65.74;98626.31;5106082;28;20300;-73
2022/12/08 08:31:29;;;;;;;8.30;6.78;;;;;;;3.69;65.52;98627.16;5105068;28;20048;-73
2022/12/08 08:33:56;;;;;;;9.15;7.47;;;;;;;3.70;65.61;98628.03;5105553;28;20036;-73
2022/12/08 08:36:23;;;;;;;8.90;7.25;;;;;;;3.52;65.87;98598.16;5106065;28;20070;-73
2022/12/08 08:38:50;;;;;;;9.65;7.53;;;;;;;3.74;65.77;98627.84;5105625;28;20040;-73
2022/12/08 08:41:17;;;;;;;9.45;8.02;;;;;;;3.82;65.72;98632.78;5105664;28;20044;-73
2022/12/08 08:43:44;;;;;;;9.20;7.28;;;;;;;3.87;65.63;98641.31;5105110;28;20056;-73
2022/12/08 08:46:12;;;;;;;9.68;7.95;;;;;;;3.91;65.70;98634.19;5104644;28;20036;-73
2022/12/08 08:48:38;;;;;;;10.05;8.50;;;;;;;3.97;65.72;98624.31;5105190;28;20095;-73
2022/12/08 08:51:10;;;;;;;9.43;8.18;;;;;;;3.36;65.85;98514.06;5105612;28;20066;-73
2022/12/08 08:53:37;;;;;;;8.88;7.38;;;;;;;4.12;65.45;98617.59;5106009;28;20040;-73
2022/12/08 08:56:07;;;;;;;8.70;6.97;;;;;;;4.16;65.47;98620.03;5105025;28;20044;-73
2022/12/08 08:58:34;;;;;;;9.02;7.30;;;;;;;3.98;65.41;98584.06;5105310;28;20101;-73
2022/12/08 09:01:01;;;;;;;8.30;7.18;;;;;;;4.25;65.62;98617.97;5105507;28;20314;-74
2022/12/08 09:03:29;;;;;;;8.70;6.90;;;;;;;4.26;65.42;98624.94;5105835;28;20055;-73
2022/12/08 09:05:56;;;;;;;9.55;7.43;;;;;;;4.18;65.49;98612.97;5104326;28;20044;-73
2022/12/08 09:08:23;;;;;;;8.85;7.55;;;;;;;4.22;65.56;98637.31;5103998;28;20304;-73
2022/12/08 09:10:50;;;;;;;10.48;7.38;;;;;;;4.24;65.73;98625.00;5105464;28;20047;-73
2022/12/08 09:13:16;;;;;;;8.07;6.82;;;;;;;4.27;65.81;98627.50;5104490;28;20242;-73
2022/12/08 09:15:43;;;;;;;9.05;7.85;;;;;;;4.31;65.84;98636.94;5105867;28;20044;-73
2022/12/08 09:18:10;;;;;;;9.52;8.15;;;;;;;4.34;65.63;98622.84;5105638;28;20036;-73
2022/12/08 09:20:39;;;;;;;8.65;7.25;;;;;;;4.35;66.03;98621.94;5106134;28;20123;-73
2022/12/08 09:23:06;;;;;;;9.50;8.40;;;;;;;4.36;65.63;98614.00;5105635;28;20039;-73
2022/12/08 09:25:33;;;;;;;9.10;7.43;;;;;;;4.35;65.85;98612.28;5105130;28;20047;-73
2022/12/08 09:27:59;;;;;;;8.40;7.10;;;;;;;4.34;65.95;98607.97;5105596;28;20070;-73
2022/12/08 09:30:26;;;;;;;9.25;7.43;;;;;;;3.97;66.13;98571.88;5104351;28;20036;-73
2022/12/08 09:32:53;;;;;;;8.23;6.88;;;;;;;4.35;66.21;98606.19;5105436;28;20083;-73
2022/12/08 09:35:20;;;;;;;10.13;7.50;;;;;;;4.32;66.42;98609.78;5104058;28;20055;-73
2022/12/08 09:37:48;;;;;;;9.25;7.85;;;;;;;4.30;66.62;98602.91;5104306;28;20040;-73
2022/12/08 09:40:18;;;;;;;11.23;7.30;;;;;;;4.28;66.93;98595.09;5105208;28;20281;-73
2022/12/08 09:42:57;;;;;;;9.43;7.25;;;;;;;4.26;67.52;98590.84;5104898;28;20044;-73
2022/12/08 09:45:26;;;;;;;11.25;8.00;;;;;;;4.27;67.05;98589.91;5105188;28;20300;-73
2022/12/08 09:48:03;;;;;;;8.20;6.85;;;;;;;4.28;67.67;98591.63;5104742;28;20292;-74
2022/12/08 09:50:33;;;;;;;8.63;7.47;;;;;;;4.27;67.24;98577.66;5103992;28;20048;-73
2022/12/08 09:53:07;;;;;;;8.45;7.55;;;;;;;4.30;67.58;98579.28;5104858;28;20051;-73
2022/12/08 09:55:42;;;;;;;7.72;6.70;;;;;;;4.32;67.50;98582.72;5106843;28;20048;-73
2022/12/08 09:58:14;;;;;;;;;;;;;;;4.32;69.05;98572.22;5108933;28;20038;-73
2022/12/08 10:00:41;;;;;;;7.30;6.25;;;;;;;4.17;67.50;98542.22;5108583;28;19916;-73
2022/12/08 10:03:11;;;;;;;6.97;6.22;;;;;;;4.21;67.86;98528.06;5107675;28;20035;-73
2022/12/08 10:05:45;;;;;;;7.78;6.57;;;;;;;3.74;67.65;98448.78;5108582;28;20341;-73
2022/12/08 10:08:20;;;;;;;7.20;6.20;;;;;;;4.41;68.38;98542.97;5108568;28;20292;-73
2022/12/08 10:10:52;;;;;;;7.78;6.57;;;;;;;4.28;67.95;98529.53;5108521;28;20310;-73
2022/12/08 10:13:25;;;;;;;8.18;6.47;;;;;;;4.44;68.01;98540.22;5108256;28;20048;-74
2022/12/08 10:16:04;;;;;;;7.63;6.47;;;;;;;4.46;68.42;98554.13;5108177;28;20044;-73
2022/12/08 10:18:33;;;;;;;9.15;6.55;;;;;;;4.48;67.93;98536.53;5108157;28;20316;-73
2022/12/08 10:21:16;;;;;;;8.43;7.05;;;;;;;4.00;68.86;98455.53;5108331;28;20048;-73
2022/12/08 10:23:49;;;;;;;8.60;6.80;;;;;;;4.53;68.35;98538.97;5108120;28;20070;-73
2022/12/08 10:26:19;;;;;;;8.70;7.30;;;;;;;4.64;67.50;98526.22;5108280;28;20044;-73
2022/12/08 10:28:46;;;;;;;9.40;7.88;;;;;;;4.80;67.26;98524.63;5108155;28;20040;-74
2022/12/08 10:31:16;;;;;;;10.85;7.38;;;;;;;4.98;67.07;98525.59;5107911;28;20052;-73
2022/12/08 10:33:44;;;;;;;9.88;7.50;;;;;;;4.93;66.38;98501.31;5107594;28;20036;-73
2022/12/08 10:36:11;;;;;;;9.48;6.95;;;;;;;5.15;66.08;98515.16;5106872;28;20331;-73
2022/12/08 10:38:40;;;;;;;7.90;7.10;;;;;;;5.21;65.86;98511.38;5108256;28;20040;-73
2022/12/08 10:41:13;;;;;;;7.80;6.70;;;;;;;5.25;66.08;98511.19;5108256;28;20044;-73
2022/12/08 10:43:44;;;;;;;8.52;7.38;;;;;;;5.20;66.14;98510.53;5108007;28;20040;-73
2022/12/08 10:46:14;;;;;;;9.93;7.93;;;;;;;5.18;65.95;98515.00;5106784;28;20047;-72
2022/12/08 10:48:50;;;;;;;8.35;7.07;;;;;;;5.14;66.14;98505.56;5108040;28;20044;-73
2022/12/08 10:51:26;;;;;;;9.43;7.15;;;;;;;5.05;66.42;98500.75;5107833;28;20094;-73
2022/12/08 10:53:53;;;;;;;9.27;7.80;;;;;;;4.82;66.16;98457.13;5107402;28;20052;-73
2022/12/08 10:56:26;;;;;;;9.50;7.65;;;;;;;5.01;66.25;98492.16;5107416;28;20146;-71
2022/12/08 10:59:07;;;;;;;11.10;8.57;;;;;;;5.01;66.56;98483.44;5107666;28;20047;-72
2022/12/08 11:01:37;;;;;;;8.65;7.75;;;;;;;5.01;66.43;98484.28;5106636;28;20040;-72
2022/12/08 11:04:10;;;;;;;9.13;7.57;;;;;;;4.81;66.51;98458.06;5106393;28;20044;-72
2022/12/08 11:06:39;;;;;;;9.50;8.20;;;;;;;4.97;66.27;98469.59;5105684;28;20200;-73
2022/12/08 11:09:22;;;;;;;11.18;9.07;;;;;;;4.97;66.62;98474.00;5107433;28;20048;-73
2022/12/08 11:11:52;;;;;;;9.85;8.82;;;;;;;4.91;67.05;98471.66;5107235;28;20032;-72
2022/12/08 11:14:23;;;;;;;12.27;8.70;;;;;;;4.86;67.05;98471.81;5107384;28;20047;-74
2022/12/08 11:16:51;;;;;;;10.52;8.85;;;;;;;4.73;66.89;98452.31;5106818;28;20044;-72
2022/12/08 11:19:20;;;;;;;11.70;10.15;;;;;;;4.84;67.04;98457.06;5107184;28;20103;-73
2022/12/08 11:21:48;;;;;;;11.00;8.63;;;;;;;4.83;67.05;98456.22;5107338;28;20062;-73
2022/12/08 11:24:24;;;;;;;13.98;9.77;;;;;;;4.81;67.63;98444.94;5106880;28;20044;-72
2022/12/08 11:26:59;;;;;;;13.48;10.68;;;;;;;4.80;67.65;98440.59;5106815;28;20066;-73
2022/12/08 11:29:28;;;;;;;13.20;10.02;;;;;;;4.61;67.61;98418.75;5107323;28;20166;-72
2022/12/08 11:31:59;;;;;;;10.77;9.43;;;;;;;4.52;67.67;98406.91;5106593;28;20059;-73
2022/12/08 11:34:35;;;;;;;13.52;10.20;;;;;;;4.77;68.00;98451.25;5106386;28;20055;-73
2022/12/08 11:37:04;;;;;;;10.80;8.57;;;;;;;3.82;67.50;98294.66;5106469;28;20044;-72
2022/12/08 11:39:35;;;;;;;13.40;10.85;;;;;;;4.75;67.82;98438.19;5106977;28;20040;-72
2022/12/08 11:42:05;;;;;;;15.65;9.73;;;;;;;4.56;67.87;98408.47;5105621;28;20044;-73
2022/12/08 11:44:38;;;;;;;11.63;10.18;;;;;;;4.75;68.09;98435.56;5106862;28;20036;-72
2022/12/08 11:47:10;;;;;;;13.00;9.75;;;;;;;4.74;68.24;98439.13;5106017;28;20040;-72
2022/12/08 11:49:39;;;;;;;15.18;11.07;;;;;;;4.56;68.02;98416.34;5106088;28;20043;-73
2022/12/08 11:52:12;;;;;;;14.40;10.07;;;;;;;4.52;68.13;98401.66;5106631;28;20288;-73